Atmautluak, AK

5:11 AM AKDT on July 26, 2014 (GMT -0800)
Nunapitchuk AP, Nunapitchuk, (PPIT) Elev 13 ft | 60.91 °N, 162.44 °W | Change Station

Current weather conditions updated 15 minutes ago

Overcast
Overcast
49 °F
Feels Like 49 °F
N
7
Wind Variable Wind from North

Today is forecast to be nearly the same temperature as yesterday.

Today
High -- | Low -- °F
--% Chance of Precip.
Yesterday
High -- | Low -- °F
Precip. -- in
6:11 AM 11:41 PM
Waning Crescent, 0% visible
Pressure 30.04 in
Visibility 10.0 miles
Clouds Overcast 6000 ft
Dew Point 40 °F
Humidity 71%
Rainfall 0.00 in
Snow Depth Not available.
UV 0 out of 12
Pollen Not available.
Air Quality Not available.
Flu Activity Not available.
METAR PPIT 261256Z AUTO 36006KT 10SM OVC060 09/04 A3004 RMK AO2 SLP173 T00940044

More Conditions Fewer Conditions

Pressure 30.04 in
Visibility 10.0 miles
Clouds Overcast 6000 ft
Dew Point 40 °F
Humidity 71%
Rainfall 0.00 in
Snow Depth Not available.
UV 0 out of 12
Pollen Not available.
Air Quality Not available.
Flu Activity Not available.
METAR PPIT 261256Z AUTO 36006KT 10SM OVC060 09/04 A3004 RMK AO2 SLP173 T00940044

More Conditions Fewer Conditions

10-Day Weather Forecast

Almanac

Astronomy

Jul. 26, 2014 Rise Set
Actual Time 6:11 AM AKDT 11:41 PM AKDT
Civil Twilight 5:01 AM AKDT 12:50 AM AKDT
Nautical Twilight 3:29 AM AKDT 2:24 AM AKDT
Astronomical Twilight Sun does not rise Sun does not rise
Moon 6:41 AM AKDT 10:49 PM AKDT
Length of Visible Light 19h 48m
Length of Day
17h 29m
Tomorrow will be 4m 51s shorter.
Waning Crescent, 0% of the Moon is Illuminated
Today
Waning Crescent
Jul 26
New
Aug 3
First Quarter
Aug 10
Full
Aug 17
Last Quarter

Today's Extremes

State Highs State Lows

Community

WunderPhotos

Upload Photos

1,737,565 photos uploaded!

Nearby

Snow Depth

Station Depth Elevation
Rocky Point 1 in 500 ft
Mcneil Canyon 1 in 1320 ft
Port Graham 0 in 300 ft
MF Bradley River 125 in 2300 ft
Point Mackenzie 1 in 200 ft

Earthquake Activity

City Distance Mag. Time & Date
No recent earthquake activity has been reported nearby.
Minimum magnitude displayed is 2.5.

Coastal Water Temperatures

Place Temperature
No Stations Reporting

Nearby Weather Stations

There are no personal weather stations in this area.